Time;durP1;ratioP1;P1;durP2;ratioP2;P2;SDS_P1;SDS_P2;PMS_P1;PMS_P2;Temp;Humidity;BMP_temperature;BMP_pressure;BME280_temperature;BME280_humidity;BME280_pressure;Samples;Min_cycle;Max_cycle;Signal;HPM_P1;HPM_P2
2023/12/03 00:02:23;;;;;;;42.40;17.95;;;0.90;99.90;;;;;;4968100;28;20079;-63
2023/12/03 00:04:51;;;;;;;46.17;18.58;;;1.00;99.90;;;;;;4970549;28;20139;-62
2023/12/03 00:07:16;;;;;;;44.63;19.35;;;1.00;99.90;;;;;;4967711;28;20074;-62
2023/12/03 00:09:42;;;;;;;46.20;18.23;;;1.00;99.90;;;;;;4968737;28;20035;-62
2023/12/03 00:12:08;;;;;;;48.13;19.60;;;1.10;99.90;;;;;;4971411;28;20033;-63
2023/12/03 00:14:34;;;;;;;50.50;18.52;;;1.00;99.90;;;;;;4973729;28;20034;-62
2023/12/03 00:17:00;;;;;;;40.55;17.75;;;1.00;99.90;;;;;;4969510;28;20050;-60
2023/12/03 00:19:26;;;;;;;49.50;19.38;;;1.00;99.90;;;;;;4970384;28;20493;-63
2023/12/03 00:21:51;;;;;;;41.65;17.58;;;0.90;99.90;;;;;;4964556;28;20389;-63
2023/12/03 00:24:18;;;;;;;46.00;18.15;;;0.70;99.90;;;;;;4970222;28;20042;-62
2023/12/03 00:26:43;;;;;;;44.47;18.33;;;0.60;99.90;;;;;;4966942;28;20094;-63
2023/12/03 00:29:12;;;;;;;41.38;16.45;;;0.50;99.90;;;;;;4970315;28;20077;-61
2023/12/03 00:31:38;;;;;;;50.03;19.05;;;0.40;99.90;;;;;;4970193;28;20046;-62
2023/12/03 00:34:04;;;;;;;41.50;16.63;;;0.40;99.90;;;;;;4968026;28;20031;-61
2023/12/03 00:36:30;;;;;;;39.03;15.43;;;0.40;99.90;;;;;;4969439;28;20031;-61
2023/12/03 00:38:56;;;;;;;45.90;17.73;;;0.50;99.90;;;;;;4967088;28;20118;-62
2023/12/03 00:41:22;;;;;;;46.25;18.52;;;0.40;99.90;;;;;;4969599;28;20106;-63
2023/12/03 00:43:48;;;;;;;50.47;18.25;;;0.30;99.90;;;;;;4969295;28;20066;-63
2023/12/03 00:46:17;;;;;;;47.85;18.35;;;0.30;99.90;;;;;;4969222;28;20015;-63
2023/12/03 00:48:42;;;;;;;50.03;18.60;;;0.30;99.90;;;;;;4966789;28;20028;-63
2023/12/03 00:51:08;;;;;;;46.17;18.75;;;0.30;99.90;;;;;;4970968;28;20154;-62
2023/12/03 00:53:33;;;;;;;47.38;19.00;;;0.20;99.90;;;;;;4971290;28;20101;-62
2023/12/03 00:55:59;;;;;;;50.97;19.48;;;0.20;99.90;;;;;;4969794;28;20027;-62
2023/12/03 00:58:24;;;;;;;46.17;18.00;;;0.20;99.90;;;;;;4971011;28;20489;-62
2023/12/03 01:00:50;;;;;;;56.03;19.50;;;0.20;99.90;;;;;;4968357;28;20039;-62
2023/12/03 01:03:15;;;;;;;50.08;19.27;;;0.10;99.90;;;;;;4970192;28;20057;-62
2023/12/03 01:05:41;;;;;;;46.92;19.35;;;0.10;99.90;;;;;;4970101;28;20027;-62
2023/12/03 01:08:07;;;;;;;52.83;19.60;;;0.10;99.90;;;;;;4971246;28;20039;-63
2023/12/03 01:10:32;;;;;;;56.85;20.90;;;0.20;99.90;;;;;;4970437;28;20027;-63
2023/12/03 01:12:58;;;;;;;54.35;20.58;;;0.10;99.90;;;;;;4971209;28;20058;-62
2023/12/03 01:15:23;;;;;;;53.80;20.45;;;0.20;99.90;;;;;;4969387;28;20445;-63
2023/12/03 01:17:49;;;;;;;48.75;19.00;;;0.30;99.90;;;;;;4969991;28;20505;-63
2023/12/03 01:20:15;;;;;;;47.42;17.30;;;0.30;99.90;;;;;;4970787;28;20378;-63
2023/12/03 01:22:40;;;;;;;47.00;18.92;;;0.40;99.90;;;;;;4967394;28;20130;-63
2023/12/03 01:25:06;;;;;;;52.38;19.67;;;0.40;99.90;;;;;;4971328;28;20054;-63
2023/12/03 01:27:31;;;;;;;46.83;18.63;;;0.50;99.90;;;;;;4964901;28;20102;-63
2023/12/03 01:29:57;;;;;;;45.05;17.98;;;0.50;99.90;;;;;;4969561;28;20523;-63
2023/12/03 01:32:23;;;;;;;50.70;18.77;;;0.60;99.90;;;;;;4971190;28;20038;-62
2023/12/03 01:34:48;;;;;;;43.40;17.35;;;0.70;99.90;;;;;;4972638;28;20440;-63
2023/12/03 01:37:14;;;;;;;48.70;19.08;;;0.60;99.90;;;;;;4971669;28;20477;-63
2023/12/03 01:39:39;;;;;;;45.65;16.67;;;0.60;99.90;;;;;;4971740;28;20122;-62
2023/12/03 01:42:05;;;;;;;47.22;17.23;;;0.70;99.90;;;;;;4971877;28;20376;-61
2023/12/03 01:44:30;;;;;;;45.70;18.20;;;0.80;99.90;;;;;;4972645;28;20041;-63
2023/12/03 01:46:58;;;;;;;43.50;17.95;;;0.70;99.90;;;;;;4972821;28;20049;-60
2023/12/03 01:49:24;;;;;;;53.28;18.92;;;0.80;99.90;;;;;;4972434;28;20177;-61
2023/12/03 01:51:50;;;;;;;41.80;17.15;;;0.70;99.90;;;;;;4972949;28;20492;-63
2023/12/03 01:54:15;;;;;;;47.45;17.70;;;0.70;99.90;;;;;;4973160;28;20019;-63
2023/12/03 01:56:41;;;;;;;42.90;16.45;;;0.70;99.90;;;;;;4971357;28;20382;-63
2023/12/03 01:59:07;;;;;;;46.40;17.98;;;0.70;99.90;;;;;;4971481;28;20038;-62
2023/12/03 02:01:32;;;;;;;40.30;17.15;;;0.70;99.90;;;;;;4966277;28;20271;-61
2023/12/03 02:03:58;;;;;;;42.13;17.58;;;0.70;99.90;;;;;;4967301;28;20030;-63
2023/12/03 02:06:24;;;;;;;42.35;17.77;;;0.70;99.90;;;;;;4969168;28;20033;-62
2023/12/03 02:08:50;;;;;;;45.47;18.13;;;0.70;99.90;;;;;;4972534;28;20019;-63
2023/12/03 02:11:15;;;;;;;39.13;17.83;;;0.70;99.90;;;;;;4971531;28;20069;-61
2023/12/03 02:13:42;;;;;;;43.05;17.02;;;0.70;99.90;;;;;;4968524;28;20038;-63
2023/12/03 02:16:08;;;;;;;42.22;17.95;;;0.60;99.90;;;;;;4969517;28;20023;-63
2023/12/03 02:18:34;;;;;;;45.38;17.40;;;0.70;99.90;;;;;;4971274;28;20417;-63
2023/12/03 02:20:59;;;;;;;42.08;17.70;;;0.80;99.90;;;;;;4972147;28;20035;-60
2023/12/03 02:23:29;;;;;;;36.10;15.95;;;0.80;99.90;;;;;;4972923;28;20035;-62
2023/12/03 02:25:54;;;;;;;45.10;17.25;;;0.90;99.90;;;;;;4969979;28;20484;-62
2023/12/03 02:28:20;;;;;;;41.10;17.10;;;0.80;99.90;;;;;;4970425;28;20029;-63
2023/12/03 02:30:45;;;;;;;36.75;15.95;;;0.70;99.90;;;;;;4971682;28;20066;-62
2023/12/03 02:33:11;;;;;;;47.03;17.48;;;0.60;99.90;;;;;;4970206;28;20043;-62
2023/12/03 02:35:37;;;;;;;44.35;17.50;;;0.60;99.90;;;;;;4972471;28;20066;-63
2023/12/03 02:38:02;;;;;;;47.65;18.38;;;0.60;99.90;;;;;;4972083;28;20027;-63
2023/12/03 02:40:32;;;;;;;41.53;17.38;;;0.50;99.90;;;;;;4970205;28;20070;-61
2023/12/03 02:42:58;;;;;;;37.50;17.58;;;0.40;99.90;;;;;;4970950;28;20424;-62
2023/12/03 02:45:23;;;;;;;44.70;17.55;;;0.40;99.90;;;;;;4971997;28;20026;-62
2023/12/03 02:47:49;;;;;;;38.42;16.65;;;0.30;99.90;;;;;;4972553;28;20035;-63
2023/12/03 02:50:14;;;;;;;43.40;15.70;;;0.30;99.90;;;;;;4971142;28;20035;-63
2023/12/03 02:52:41;;;;;;;48.17;18.40;;;0.30;99.90;;;;;;4972974;28;20031;-62
2023/12/03 02:55:07;;;;;;;38.13;16.50;;;0.30;99.90;;;;;;4972079;28;20039;-62
2023/12/03 02:57:32;;;;;;;43.97;17.25;;;0.30;99.90;;;;;;4972433;28;20022;-64
2023/12/03 02:59:58;;;;;;;45.65;18.92;;;0.20;99.90;;;;;;4971743;28;20512;-61
2023/12/03 03:02:23;;;;;;;35.65;17.33;;;0.10;99.90;;;;;;4970848;28;20037;-59
2023/12/03 03:04:49;;;;;;;40.72;17.20;;;0.10;99.90;;;;;;4972294;28;20030;-62
2023/12/03 03:07:14;;;;;;;41.95;17.10;;;0.10;99.90;;;;;;4972281;28;20046;-63
2023/12/03 03:09:40;;;;;;;45.17;17.67;;;0.10;99.90;;;;;;4971092;28;20073;-63
2023/12/03 03:12:06;;;;;;;51.22;18.30;;;0.10;99.90;;;;;;4972936;28;20046;-62
2023/12/03 03:14:31;;;;;;;39.25;16.83;;;0.10;99.90;;;;;;4972245;28;20493;-63
2023/12/03 03:16:57;;;;;;;43.95;17.10;;;0.10;99.90;;;;;;4971341;28;20026;-62
2023/12/03 03:19:22;;;;;;;42.17;16.15;;;0.20;99.90;;;;;;4971287;28;20042;-63
2023/12/03 03:21:48;;;;;;;46.97;18.63;;;0.20;99.90;;;;;;4972232;28;20023;-63
2023/12/03 03:24:13;;;;;;;39.70;16.17;;;0.30;99.90;;;;;;4971660;28;20041;-62
2023/12/03 03:26:42;;;;;;;37.97;15.88;;;0.20;99.90;;;;;;4972081;28;20049;-61
2023/12/03 03:29:08;;;;;;;43.97;17.25;;;0.20;99.90;;;;;;4971629;28;20019;-61
2023/12/03 03:31:33;;;;;;;39.25;16.00;;;0.10;99.90;;;;;;4971157;28;20397;-63
2023/12/03 03:33:59;;;;;;;34.70;15.27;;;0.10;99.90;;;;;;4970162;28;20386;-63
2023/12/03 03:36:24;;;;;;;36.33;15.05;;;0.10;99.90;;;;;;4971121;28;20039;-61
2023/12/03 03:38:50;;;;;;;36.25;16.40;;;0.10;99.90;;;;;;4971035;28;20405;-61
2023/12/03 03:41:16;;;;;;;40.08;15.40;;;0.20;99.90;;;;;;4971351;28;20397;-62
2023/12/03 03:43:41;;;;;;;46.90;17.13;;;0.10;99.90;;;;;;4971990;28;20110;-62
2023/12/03 03:46:09;;;;;;;39.30;15.23;;;0.20;99.90;;;;;;4970905;28;20114;-60
2023/12/03 03:48:35;;;;;;;38.90;14.93;;;0.10;99.90;;;;;;4970978;28;20113;-62
2023/12/03 03:51:00;;;;;;;44.63;16.80;;;0.00;99.90;;;;;;4969600;28;20098;-63
2023/12/03 03:53:26;;;;;;;42.80;16.15;;;-0.10;99.90;;;;;;4972241;28;20038;-63
2023/12/03 03:55:51;;;;;;;38.75;16.20;;;-0.10;99.90;;;;;;4971121;28;20026;-62
2023/12/03 03:58:17;;;;;;;38.70;13.98;;;-0.20;99.90;;;;;;4969282;28;20425;-63
2023/12/03 04:00:42;;;;;;;36.78;14.90;;;-0.20;99.90;;;;;;4969403;28;20378;-64
2023/12/03 04:03:08;;;;;;;38.10;14.82;;;-0.20;99.90;;;;;;4969779;28;20034;-63
2023/12/03 04:05:34;;;;;;;45.15;15.48;;;-0.20;99.90;;;;;;4970360;28;20027;-61
2023/12/03 04:07:59;;;;;;;36.17;14.48;;;-0.20;99.90;;;;;;4966844;28;20027;-62
2023/12/03 04:10:25;;;;;;;39.47;14.93;;;-0.30;99.90;;;;;;4970988;28;20073;-63
2023/12/03 04:12:50;;;;;;;39.72;16.33;;;-0.30;99.90;;;;;;4970880;28;20037;-61
2023/12/03 04:15:17;;;;;;;40.05;16.27;;;-0.30;99.90;;;;;;4964747;28;20030;-62
2023/12/03 04:17:44;;;;;;;38.80;15.80;;;-0.30;99.90;;;;;;4970813;28;20513;-61
2023/12/03 04:20:10;;;;;;;36.50;14.35;;;-0.30;99.90;;;;;;4967781;28;20034;-66
2023/12/03 04:22:36;;;;;;;36.75;14.77;;;-0.20;99.90;;;;;;4971641;28;20109;-64
2023/12/03 04:25:01;;;;;;;40.08;15.30;;;-0.30;99.90;;;;;;4965205;28;20155;-62
2023/12/03 04:27:27;;;;;;;44.03;17.10;;;-0.20;99.90;;;;;;4971054;28;20109;-64
2023/12/03 04:29:52;;;;;;;33.95;13.52;;;-0.10;99.90;;;;;;4968971;28;20404;-60
2023/12/03 04:32:18;;;;;;;42.22;15.45;;;-0.10;99.90;;;;;;4964704;28;20029;-62
2023/12/03 04:34:43;;;;;;;37.72;14.43;;;0.00;99.90;;;;;;4971350;28;20031;-63
2023/12/03 04:37:09;;;;;;;39.97;14.98;;;0.00;99.90;;;;;;4968068;28;20018;-62
2023/12/03 04:39:35;;;;;;;34.72;13.88;;;0.10;99.90;;;;;;4971405;28;20034;-63
2023/12/03 04:42:00;;;;;;;39.42;14.25;;;0.10;99.90;;;;;;4969310;28;20042;-62
2023/12/03 04:44:26;;;;;;;33.97;13.10;;;0.10;99.90;;;;;;4971480;28;20027;-63
2023/12/03 04:46:52;;;;;;;32.88;13.90;;;0.00;99.90;;;;;;4968282;28;20023;-62
2023/12/03 04:49:17;;;;;;;34.65;12.98;;;0.10;99.90;;;;;;4970513;28;20023;-62
2023/12/03 04:51:44;;;;;;;33.30;13.35;;;0.10;99.90;;;;;;4966978;28;20057;-63
2023/12/03 04:54:09;;;;;;;32.25;12.05;;;0.00;99.90;;;;;;4959138;28;20106;-62
2023/12/03 04:56:35;;;;;;;38.50;14.45;;;0.00;99.90;;;;;;4970606;28;20027;-63
2023/12/03 04:59:00;;;;;;;33.15;13.05;;;0.10;99.90;;;;;;4970602;28;20481;-62
2023/12/03 05:01:26;;;;;;;28.38;11.80;;;0.10;99.90;;;;;;4970639;28;20027;-63
2023/12/03 05:03:51;;;;;;;35.35;13.57;;;0.20;99.90;;;;;;4965420;28;20497;-62
2023/12/03 05:06:17;;;;;;;27.77;11.88;;;0.20;99.90;;;;;;4968593;28;20051;-64
2023/12/03 05:08:43;;;;;;;34.55;12.52;;;0.30;99.90;;;;;;4969160;28;20409;-60
2023/12/03 05:11:08;;;;;;;25.60;10.68;;;0.20;99.90;;;;;;4970739;28;20026;-62
2023/12/03 05:13:34;;;;;;;30.75;11.70;;;0.20;99.90;;;;;;4974346;28;20031;-63
2023/12/03 05:16:04;;;;;;;26.50;11.05;;;0.20;99.90;;;;;;4974314;28;20058;-63
2023/12/03 05:18:30;;;;;;;30.33;10.90;;;0.20;99.90;;;;;;4968709;28;20022;-63
2023/12/03 05:20:57;;;;;;;27.67;11.55;;;0.20;99.90;;;;;;4972724;28;20047;-63
2023/12/03 05:23:23;;;;;;;31.00;10.93;;;0.30;99.90;;;;;;4968739;28;20027;-63
2023/12/03 05:25:48;;;;;;;27.27;10.43;;;0.30;99.90;;;;;;4973325;28;20081;-63
2023/12/03 05:28:14;;;;;;;26.52;11.07;;;0.30;99.90;;;;;;4974280;28;20393;-62
2023/12/03 05:30:39;;;;;;;28.00;11.45;;;0.30;99.90;;;;;;4971220;28;20045;-63
2023/12/03 05:33:05;;;;;;;27.73;11.30;;;0.30;99.90;;;;;;4973597;28;20081;-60
2023/12/03 05:35:31;;;;;;;29.35;11.52;;;0.40;99.90;;;;;;4974230;28;20597;-62
2023/12/03 05:37:56;;;;;;;27.13;12.20;;;0.40;99.90;;;;;;4965803;28;20050;-62
2023/12/03 05:40:22;;;;;;;31.05;11.30;;;0.40;99.90;;;;;;4973485;28;20046;-60
2023/12/03 05:42:47;;;;;;;27.33;10.48;;;0.40;99.90;;;;;;4972605;28;20085;-62
2023/12/03 05:45:13;;;;;;;29.58;11.13;;;0.40;99.90;;;;;;4973811;28;20473;-61
2023/12/03 05:47:40;;;;;;;25.50;10.38;;;0.40;99.90;;;;;;4974433;28;20393;-64
2023/12/03 05:50:06;;;;;;;28.23;11.20;;;0.40;99.90;;;;;;4964580;28;20031;-62
2023/12/03 05:52:32;;;;;;;26.95;11.63;;;0.40;99.90;;;;;;4972252;28;20023;-65
2023/12/03 05:54:57;;;;;;;22.85;10.68;;;0.40;99.90;;;;;;4973307;28;20038;-62
2023/12/03 05:57:23;;;;;;;34.30;10.85;;;0.30;99.90;;;;;;4973782;28;20400;-63
2023/12/03 05:59:50;;;;;;;32.10;10.80;;;0.30;99.90;;;;;;4972229;28;20513;-62
2023/12/03 06:02:16;;;;;;;25.75;10.35;;;0.30;99.90;;;;;;4971963;28;20018;-63
2023/12/03 06:04:42;;;;;;;22.60;9.93;;;0.20;99.90;;;;;;4972165;28;20109;-63
2023/12/03 06:07:07;;;;;;;24.98;9.68;;;0.20;99.90;;;;;;4974050;28;20022;-62
2023/12/03 06:09:33;;;;;;;30.20;11.32;;;0.10;99.90;;;;;;4966448;28;20030;-61
2023/12/03 06:11:59;;;;;;;28.02;10.73;;;0.20;99.90;;;;;;4972309;28;20026;-61
2023/12/03 06:14:24;;;;;;;26.42;9.38;;;0.20;99.90;;;;;;4973598;28;20561;-62
2023/12/03 06:16:50;;;;;;;28.27;10.55;;;0.20;99.90;;;;;;4973454;28;20034;-62
2023/12/03 06:19:17;;;;;;;27.50;11.20;;;0.10;99.90;;;;;;4971625;28;20034;-62
2023/12/03 06:21:42;;;;;;;27.70;10.68;;;0.10;99.90;;;;;;4970419;28;20049;-61
2023/12/03 06:24:08;;;;;;;28.77;10.68;;;0.10;99.90;;;;;;4973448;28;20652;-61
2023/12/03 06:26:33;;;;;;;28.83;10.68;;;0.10;99.90;;;;;;4972894;28;20497;-61
2023/12/03 06:28:59;;;;;;;29.67;10.32;;;0.00;99.90;;;;;;4965084;28;20424;-63
2023/12/03 06:31:24;;;;;;;35.38;11.63;;;0.00;99.90;;;;;;4973234;28;20035;-61
2023/12/03 06:33:50;;;;;;;32.85;12.07;;;0.00;99.90;;;;;;4966902;28;20097;-62
2023/12/03 06:36:15;;;;;;;34.63;11.77;;;0.00;99.90;;;;;;4968112;28;20081;-62
2023/12/03 06:38:41;;;;;;;36.85;12.07;;;0.00;99.90;;;;;;4969538;28;20106;-61
2023/12/03 06:41:06;;;;;;;29.25;12.18;;;0.00;99.90;;;;;;4972901;28;20031;-63
2023/12/03 06:43:32;;;;;;;33.67;12.70;;;0.10;99.90;;;;;;4971746;28;20042;-62
2023/12/03 06:46:00;;;;;;;34.65;12.75;;;0.10;99.90;;;;;;4969004;28;20030;-62
2023/12/03 06:48:26;;;;;;;28.02;9.57;;;0.20;99.90;;;;;;4970366;28;20019;-62
2023/12/03 06:50:55;;;;;;;29.08;11.18;;;0.10;99.90;;;;;;4972362;28;20184;-61
2023/12/03 06:53:20;;;;;;;30.48;11.57;;;0.20;99.90;;;;;;4971325;28;20106;-62
2023/12/03 06:55:46;;;;;;;33.80;11.93;;;0.20;99.90;;;;;;4969737;28;20552;-62
2023/12/03 06:58:12;;;;;;;27.90;11.35;;;0.20;99.90;;;;;;4970954;28;20445;-63
2023/12/03 07:00:37;;;;;;;35.60;12.50;;;0.10;99.90;;;;;;4971180;28;20027;-62
2023/12/03 07:03:03;;;;;;;31.02;11.90;;;0.20;99.90;;;;;;4969830;28;20081;-63
2023/12/03 07:05:29;;;;;;;29.95;11.10;;;0.20;99.90;;;;;;4969396;28;20026;-62
2023/12/03 07:07:54;;;;;;;25.88;10.55;;;0.30;99.90;;;;;;4971670;28;20086;-61
2023/12/03 07:10:20;;;;;;;27.92;10.18;;;0.20;99.90;;;;;;4971658;28;20026;-62
2023/12/03 07:12:46;;;;;;;27.83;11.15;;;0.20;99.90;;;;;;4968881;28;20101;-62
2023/12/03 07:15:11;;;;;;;26.15;9.80;;;0.10;99.90;;;;;;4968425;28;21991;-62
2023/12/03 07:17:39;;;;;;;30.10;10.93;;;0.20;99.90;;;;;;4971906;28;20031;-62
2023/12/03 07:20:06;;;;;;;34.65;12.38;;;0.20;99.90;;;;;;4970333;28;20035;-61
2023/12/03 07:22:32;;;;;;;33.70;12.88;;;0.20;99.90;;;;;;4968220;28;20027;-62
2023/12/03 07:24:57;;;;;;;32.38;11.00;;;0.30;99.90;;;;;;4969814;28;20038;-61
2023/12/03 07:27:23;;;;;;;27.42;10.70;;;0.30;99.90;;;;;;4971162;28;20043;-62
2023/12/03 07:29:56;;;;;;;31.15;11.73;;;0.30;99.90;;;;;;4969924;28;20031;-63
2023/12/03 07:32:25;;;;;;;34.08;13.05;;;0.30;99.90;;;;;;4967642;28;20110;-62
2023/12/03 07:34:50;;;;;;;27.30;10.88;;;0.40;99.90;;;;;;4969348;28;20679;-62
2023/12/03 07:37:16;;;;;;;35.83;11.50;;;0.40;99.90;;;;;;4969636;28;20034;-63
2023/12/03 07:39:42;;;;;;;33.30;11.43;;;0.30;99.90;;;;;;4965274;28;20062;-62
2023/12/03 07:42:07;;;;;;;28.00;11.25;;;0.30;99.90;;;;;;4966906;28;20531;-63
2023/12/03 07:44:33;;;;;;;32.83;12.75;;;0.30;99.90;;;;;;4963362;28;20038;-62
2023/12/03 07:46:59;;;;;;;34.78;11.52;;;0.30;99.90;;;;;;4970396;28;20041;-62
2023/12/03 07:49:25;;;;;;;30.17;10.73;;;0.30;99.90;;;;;;4967266;28;20389;-62
2023/12/03 07:51:50;;;;;;;30.17;11.02;;;0.30;99.90;;;;;;4968908;28;20093;-63
2023/12/03 07:54:17;;;;;;;33.20;12.35;;;0.20;99.90;;;;;;4964115;28;20031;-63
2023/12/03 07:56:42;;;;;;;28.35;10.98;;;0.10;99.90;;;;;;4971348;28;20037;-64
2023/12/03 07:59:08;;;;;;;28.77;10.40;;;0.10;99.90;;;;;;4969563;28;20121;-61
2023/12/03 08:01:34;;;;;;;35.65;13.10;;;0.10;99.90;;;;;;4971478;28;20025;-62
2023/12/03 08:04:00;;;;;;;29.88;10.82;;;0.10;99.90;;;;;;4968847;28;20058;-62
2023/12/03 08:06:26;;;;;;;29.80;11.50;;;0.10;99.90;;;;;;4968325;28;20137;-63
2023/12/03 08:08:53;;;;;;;25.92;10.93;;;0.10;99.90;;;;;;4970846;28;20019;-62
2023/12/03 08:11:19;;;;;;;30.95;11.27;;;0.10;99.90;;;;;;4968246;28;20046;-61
2023/12/03 08:13:45;;;;;;;36.13;11.00;;;;;;;;;;4971682;28;20542;-64
2023/12/03 08:16:11;;;;;;;33.13;12.82;;;0.20;99.90;;;;;;4971847;28;20058;-62
2023/12/03 08:18:37;;;;;;;32.50;11.55;;;0.20;99.90;;;;;;4971509;28;20031;-62
2023/12/03 08:21:03;;;;;;;31.08;12.45;;;0.30;99.90;;;;;;4964983;28;20538;-63
2023/12/03 08:23:30;;;;;;;28.77;11.63;;;0.20;99.90;;;;;;4970719;28;20086;-62
2023/12/03 08:25:56;;;;;;;34.72;13.02;;;0.20;99.90;;;;;;4971745;28;20105;-61
2023/12/03 08:28:22;;;;;;;30.45;12.13;;;0.30;99.90;;;;;;4969677;28;20499;-63
2023/12/03 08:30:48;;;;;;;34.45;12.45;;;;;;;;;;4969846;28;20031;-61
2023/12/03 08:33:14;;;;;;;35.33;12.43;;;0.20;99.90;;;;;;4965181;28;20488;-63
2023/12/03 08:35:40;;;;;;;34.33;12.50;;;0.30;99.90;;;;;;4970322;28;20050;-63
2023/12/03 08:38:06;;;;;;;32.03;11.93;;;0.30;99.90;;;;;;4969451;28;20031;-61
2023/12/03 08:40:32;;;;;;;37.58;12.73;;;0.40;99.90;;;;;;4967308;28;20102;-61
2023/12/03 08:42:58;;;;;;;32.80;10.13;;;0.30;99.90;;;;;;4967642;28;20050;-63
2023/12/03 08:45:24;;;;;;;37.85;13.65;;;0.30;99.90;;;;;;4973998;28;20031;-63
2023/12/03 08:47:49;;;;;;;31.63;11.07;;;0.40;99.90;;;;;;4963217;28;20030;-63
2023/12/03 08:50:15;;;;;;;34.17;11.90;;;0.30;99.90;;;;;;4966423;28;20027;-63
2023/12/03 08:52:40;;;;;;;31.15;12.13;;;0.40;99.90;;;;;;4971666;28;20098;-62
2023/12/03 08:55:07;;;;;;;33.63;13.38;;;0.40;99.90;;;;;;4970479;28;20121;-63
2023/12/03 08:57:32;;;;;;;37.45;12.23;;;0.50;99.90;;;;;;4971393;28;20385;-63
2023/12/03 08:59:58;;;;;;;31.77;11.98;;;0.50;99.90;;;;;;4965407;28;20076;-63
2023/12/03 09:02:23;;;;;;;32.20;11.02;;;0.60;99.90;;;;;;4973334;28;20043;-62
2023/12/03 09:04:52;;;;;;;29.98;11.63;;;0.70;99.90;;;;;;4971534;28;20078;-63
2023/12/03 09:07:18;;;;;;;33.28;13.02;;;0.70;99.90;;;;;;4972172;28;20499;-62
2023/12/03 09:09:43;;;;;;;31.35;12.02;;;0.70;99.90;;;;;;4970902;28;20147;-63
2023/12/03 09:12:09;;;;;;;29.65;11.18;;;0.80;99.90;;;;;;4973940;28;20019;-63
2023/12/03 09:14:35;;;;;;;29.55;11.68;;;0.80;99.90;;;;;;4975007;28;20388;-63
2023/12/03 09:17:03;;;;;;;33.20;11.98;;;0.80;99.90;;;;;;4974668;28;20431;-63
2023/12/03 09:19:29;;;;;;;32.30;11.55;;;0.90;99.90;;;;;;4970663;28;20065;-62
2023/12/03 09:21:54;;;;;;;30.38;12.10;;;0.90;99.90;;;;;;4972928;28;20055;-63
2023/12/03 09:24:20;;;;;;;25.83;10.98;;;1.00;99.90;;;;;;4973069;28;20030;-63
2023/12/03 09:26:47;;;;;;;28.77;10.80;;;1.10;99.90;;;;;;4970843;28;20024;-63
2023/12/03 09:29:13;;;;;;;31.80;12.20;;;1.10;99.90;;;;;;4967898;28;20015;-63
2023/12/03 09:31:41;;;;;;;26.08;11.13;;;1.20;99.90;;;;;;4967509;28;20105;-62
2023/12/03 09:34:08;;;;;;;27.33;10.55;;;1.30;99.90;;;;;;4974436;28;20019;-63
2023/12/03 09:36:34;;;;;;;28.33;10.98;;;1.40;99.90;;;;;;4968610;28;20038;-63
2023/12/03 09:39:00;;;;;;;31.38;10.75;;;1.40;99.90;;;;;;4969067;28;20580;-63
2023/12/03 09:41:29;;;;;;;32.95;11.65;;;1.50;99.90;;;;;;4973265;28;20031;-63
2023/12/03 09:43:59;;;;;;;40.90;13.65;;;1.50;99.90;;;;;;4967014;28;20035;-65
2023/12/03 09:46:26;;;;;;;34.65;12.32;;;1.60;99.90;;;;;;4967927;28;20031;-63
2023/12/03 09:48:53;;;;;;;33.75;12.13;;;1.70;99.90;;;;;;4971994;28;20030;-63
2023/12/03 09:51:19;;;;;;;23.73;10.15;;;1.70;99.90;;;;;;4967624;28;20038;-63
2023/12/03 09:53:46;;;;;;;35.28;11.63;;;1.80;99.90;;;;;;4970314;28;20031;-63
2023/12/03 09:56:13;;;;;;;27.52;11.48;;;1.90;99.90;;;;;;4972814;28;20485;-63
2023/12/03 09:58:39;;;;;;;27.83;11.68;;;2.00;99.90;;;;;;4967351;28;20037;-64
2023/12/03 10:01:05;;;;;;;34.45;12.85;;;2.00;99.90;;;;;;4973170;28;20098;-65
2023/12/03 10:03:31;;;;;;;29.30;11.45;;;2.10;99.90;;;;;;4964696;28;20063;-63
2023/12/03 10:05:57;;;;;;;32.95;12.57;;;2.10;99.90;;;;;;4971756;28;20061;-62
2023/12/03 10:08:23;;;;;;;39.03;12.82;;;2.10;99.90;;;;;;4970251;28;20085;-64
2023/12/03 10:10:57;;;;;;;34.33;13.07;;;2.10;99.90;;;;;;4968187;28;20029;-62
2023/12/03 10:13:25;;;;;;;33.33;12.95;;;2.00;99.90;;;;;;4971429;28;20082;-61
2023/12/03 10:15:50;;;;;;;33.97;12.77;;;2.00;99.90;;;;;;4972731;28;20065;-63
2023/12/03 10:18:16;;;;;;;37.60;13.13;;;2.00;99.90;;;;;;4968510;28;20765;-63
2023/12/03 10:20:42;;;;;;;32.15;12.93;;;2.10;99.90;;;;;;4970112;28;20031;-63
2023/12/03 10:23:15;;;;;;;41.63;14.15;;;2.10;99.90;;;;;;4967978;28;21491;-64
2023/12/03 10:25:41;;;;;;;33.13;12.90;;;2.00;99.90;;;;;;4972451;28;20023;-63
2023/12/03 10:28:11;;;;;;;32.85;12.68;;;2.00;99.90;;;;;;4966255;28;20090;-64
2023/12/03 10:30:37;;;;;;;46.22;16.45;;;2.20;99.90;;;;;;4966979;28;20042;-63
2023/12/03 10:33:04;;;;;;;38.95;14.50;;;2.30;99.90;;;;;;4972181;28;20085;-64
2023/12/03 10:35:34;;;;;;;38.13;14.38;;;2.40;99.90;;;;;;4967565;28;20034;-64
2023/12/03 10:38:00;;;;;;;38.20;14.15;;;2.50;99.90;;;;;;4967026;28;20066;-63
2023/12/03 10:40:26;;;;;;;36.70;14.50;;;2.50;99.90;;;;;;4972031;28;20077;-64
2023/12/03 10:42:52;;;;;;;37.95;14.98;;;2.60;99.90;;;;;;4968555;28;20035;-63
2023/12/03 10:45:17;;;;;;;40.65;13.73;;;2.70;99.90;;;;;;4970878;28;20073;-61
2023/12/03 10:47:44;;;;;;;32.28;12.40;;;2.70;99.90;;;;;;4969786;28;20080;-64
2023/12/03 10:50:11;;;;;;;29.55;12.60;;;2.70;99.90;;;;;;4969785;28;20031;-63
2023/12/03 10:52:39;;;;;;;29.75;11.70;;;2.80;99.90;;;;;;4969010;28;20031;-63
2023/12/03 10:55:09;;;;;;;36.65;13.40;;;2.80;99.90;;;;;;4966674;28;20027;-64
2023/12/03 10:57:43;;;;;;;36.47;13.18;;;3.00;99.90;;;;;;4966850;28;20033;-64
2023/12/03 11:00:09;;;;;;;30.88;12.32;;;3.20;99.90;;;;;;4969494;28;20044;-64
2023/12/03 11:03:01;;;;;;;30.92;13.10;;;3.30;99.90;;;;;;4966138;28;20374;-64
2023/12/03 11:05:32;;;;;;;33.45;12.15;;;3.40;99.90;;;;;;4968419;28;20019;-64
2023/12/03 11:08:01;;;;;;;26.90;10.68;;;3.30;99.90;;;;;;4966701;28;20026;-63
2023/12/03 11:10:27;;;;;;;25.73;10.30;;;3.20;99.90;;;;;;4967979;28;20499;-64
2023/12/03 11:12:54;;;;;;;29.02;11.50;;;3.20;99.90;;;;;;4971268;28;20023;-64
2023/12/03 11:15:21;;;;;;;28.35;11.32;;;3.20;99.90;;;;;;4962283;28;20393;-63
2023/12/03 11:17:49;;;;;;;24.42;10.95;;;3.40;99.90;;;;;;4967606;28;20489;-65
2023/12/03 11:20:23;;;;;;;24.30;10.75;;;3.30;99.90;;;;;;4964175;28;20038;-63
2023/12/03 11:23:11;;;;;;;29.95;13.35;;;3.40;99.90;;;;;;4961354;28;20035;-64
2023/12/03 11:25:57;;;;;;;33.35;12.40;;;3.40;99.90;;;;;;4968531;28;20031;-63
2023/12/03 11:28:22;;;;;;;36.53;14.82;;;3.40;99.90;;;;;;4964259;28;20043;-64
2023/12/03 11:30:48;;;;;;;31.42;11.77;;;3.40;99.90;;;;;;4963469;28;20026;-64
2023/12/03 11:33:15;;;;;;;34.88;13.25;;;3.50;99.90;;;;;;4966904;28;20460;-63
2023/12/03 11:35:42;;;;;;;32.80;12.32;;;3.50;99.90;;;;;;4961571;28;20086;-63
2023/12/03 11:38:34;;;;;;;37.38;13.38;;;3.50;99.90;;;;;;4967351;28;20027;-63
2023/12/03 11:41:00;;;;;;;30.25;13.13;;;3.60;99.90;;;;;;4964537;28;20148;-63
2023/12/03 11:43:28;;;;;;;34.53;13.27;;;3.60;99.90;;;;;;4967650;28;20045;-63
2023/12/03 11:45:54;;;;;;;29.50;12.15;;;3.50;99.90;;;;;;4967726;28;20031;-63
2023/12/03 11:48:21;;;;;;;28.88;12.23;;;3.30;99.90;;;;;;4969226;28;20482;-63
2023/12/03 11:50:48;;;;;;;33.75;13.88;;;3.30;99.90;;;;;;4966612;28;21269;-64
2023/12/03 11:53:15;;;;;;;29.27;11.63;;;3.40;99.90;;;;;;4967871;28;20130;-64
2023/12/03 11:55:45;;;;;;;29.88;11.85;;;3.50;99.90;;;;;;4965703;28;20507;-64
2023/12/03 11:58:11;;;;;;;27.40;11.68;;;3.80;99.90;;;;;;4965046;28;20030;-62
2023/12/03 12:00:40;;;;;;;27.17;12.07;;;3.80;99.90;;;;;;4965594;28;20408;-63
2023/12/03 12:03:07;;;;;;;29.88;11.60;;;3.70;99.90;;;;;;4969405;28;20035;-63
2023/12/03 12:05:41;;;;;;;23.63;9.88;;;3.90;99.90;;;;;;4967627;28;20033;-63
2023/12/03 12:08:06;;;;;;;23.98;10.88;;;4.20;99.90;;;;;;4966867;28;20031;-63
2023/12/03 12:10:33;;;;;;;23.83;10.75;;;4.20;99.90;;;;;;4964219;28;20073;-63
2023/12/03 12:13:03;;;;;;;24.35;10.43;;;4.40;99.90;;;;;;4966097;28;20053;-67
2023/12/03 12:15:29;;;;;;;27.58;10.95;;;4.60;99.90;;;;;;4963916;28;20415;-63
2023/12/03 12:17:55;;;;;;;24.02;10.20;;;4.80;99.90;;;;;;4966436;28;20027;-63
2023/12/03 12:20:29;;;;;;;25.60;10.95;;;4.90;99.90;;;;;;4963636;28;20031;-64
2023/12/03 12:22:56;;;;;;;22.15;9.45;;;5.00;99.90;;;;;;4970044;28;20042;-64
2023/12/03 12:25:23;;;;;;;23.05;10.07;;;4.90;99.90;;;;;;4963174;28;20262;-63
2023/12/03 12:27:50;;;;;;;23.67;9.95;;;4.80;99.90;;;;;;4967197;28;20023;-64
2023/12/03 12:30:17;;;;;;;24.13;9.80;;;5.10;99.90;;;;;;4959982;28;20040;-65
2023/12/03 12:32:44;;;;;;;20.25;10.27;;;4.60;99.90;;;;;;4960830;28;20046;-63
2023/12/03 12:35:10;;;;;;;23.15;10.23;;;4.90;99.90;;;;;;4964859;28;20019;-63